sensor_id;sensor_type;location;lat;lon;timestamp;temperature;humidity
37356;DHT22;48747;50.250;18.848;2023-05-17T00:01:44;12.20;99.90
37356;DHT22;48747;50.250;18.848;2023-05-17T00:03:54;12.20;99.90
37356;DHT22;48747;50.250;18.848;2023-05-17T00:05:55;12.20;99.90
37356;DHT22;48747;50.250;18.848;2023-05-17T00:07:59;12.10;99.90
37356;DHT22;48747;50.250;18.848;2023-05-17T00:10:05;12.20;99.90
37356;DHT22;48747;50.250;18.848;2023-05-17T00:12:08;12.20;99.90
37356;DHT22;48747;50.250;18.848;2023-05-17T00:14:11;12.10;99.90
37356;DHT22;48747;50.250;18.848;2023-05-17T00:16:14;12.20;99.90
37356;DHT22;48747;50.250;18.848;2023-05-17T00:18:18;12.20;99.90
37356;DHT22;48747;50.250;18.848;2023-05-17T00:20:21;12.10;99.90
37356;DHT22;48747;50.250;18.848;2023-05-17T00:22:24;12.10;99.90
37356;DHT22;48747;50.250;18.848;2023-05-17T00:24:31;12.00;99.90
37356;DHT22;48747;50.250;18.848;2023-05-17T00:26:35;12.10;99.90
37356;DHT22;48747;50.250;18.848;2023-05-17T00:28:38;12.00;99.90
37356;DHT22;48747;50.250;18.848;2023-05-17T00:30:41;12.00;99.90
37356;DHT22;48747;50.250;18.848;2023-05-17T00:32:44;12.00;99.90
37356;DHT22;48747;50.250;18.848;2023-05-17T00:34:50;12.00;99.90
37356;DHT22;48747;50.250;18.848;2023-05-17T00:36:53;11.90;99.90
37356;DHT22;48747;50.250;18.848;2023-05-17T00:38:56;11.90;99.90
37356;DHT22;48747;50.250;18.848;2023-05-17T00:40:59;11.90;99.90
37356;DHT22;48747;50.250;18.848;2023-05-17T00:43:03;11.90;99.90
37356;DHT22;48747;50.250;18.848;2023-05-17T00:45:06;11.90;99.90
37356;DHT22;48747;50.250;18.848;2023-05-17T00:47:10;11.90;99.90
37356;DHT22;48747;50.250;18.848;2023-05-17T00:49:18;11.90;99.90
37356;DHT22;48747;50.250;18.848;2023-05-17T00:51:19;11.90;99.90
37356;DHT22;48747;50.250;18.848;2023-05-17T00:53:25;11.90;99.90
37356;DHT22;48747;50.250;18.848;2023-05-17T00:55:27;11.90;99.90
37356;DHT22;48747;50.250;18.848;2023-05-17T00:57:31;11.90;99.90
37356;DHT22;48747;50.250;18.848;2023-05-17T00:59:36;11.90;99.90
37356;DHT22;48747;50.250;18.848;2023-05-17T01:01:41;11.90;99.90
37356;DHT22;48747;50.250;18.848;2023-05-17T01:03:45;12.00;99.90
37356;DHT22;48747;50.250;18.848;2023-05-17T01:05:49;12.00;99.90
37356;DHT22;48747;50.250;18.848;2023-05-17T01:07:57;12.00;99.90
37356;DHT22;48747;50.250;18.848;2023-05-17T01:10:01;11.90;99.90
37356;DHT22;48747;50.250;18.848;2023-05-17T01:12:23;11.90;99.90
37356;DHT22;48747;50.250;18.848;2023-05-17T01:14:29;12.00;99.90
37356;DHT22;48747;50.250;18.848;2023-05-17T01:28:39;12.00;99.90
37356;DHT22;48747;50.250;18.848;2023-05-17T01:30:48;12.00;99.90
37356;DHT22;48747;50.250;18.848;2023-05-17T01:32:55;12.00;99.90
37356;DHT22;48747;50.250;18.848;2023-05-17T01:35:03;12.00;99.90
37356;DHT22;48747;50.250;18.848;2023-05-17T01:37:15;12.00;99.90
37356;DHT22;48747;50.250;18.848;2023-05-17T01:39:21;12.00;99.90
37356;DHT22;48747;50.250;18.848;2023-05-17T01:41:28;12.00;99.90
37356;DHT22;48747;50.250;18.848;2023-05-17T01:43:45;12.00;99.90
37356;DHT22;48747;50.250;18.848;2023-05-17T01:48:35;12.00;99.90
37356;DHT22;48747;50.250;18.848;2023-05-17T01:50:40;12.00;99.90
37356;DHT22;48747;50.250;18.848;2023-05-17T01:52:54;12.10;99.90
37356;DHT22;48747;50.250;18.848;2023-05-17T01:57:07;12.10;99.90
37356;DHT22;48747;50.250;18.848;2023-05-17T01:59:14;12.10;99.90
37356;DHT22;48747;50.250;18.848;2023-05-17T02:03:28;12.00;99.90
37356;DHT22;48747;50.250;18.848;2023-05-17T02:05:33;12.00;99.90
37356;DHT22;48747;50.250;18.848;2023-05-17T02:07:36;12.00;99.90
37356;DHT22;48747;50.250;18.848;2023-05-17T02:09:40;12.00;99.90
37356;DHT22;48747;50.250;18.848;2023-05-17T02:11:47;12.00;99.90
37356;DHT22;48747;50.250;18.848;2023-05-17T02:13:48;11.90;99.90
37356;DHT22;48747;50.250;18.848;2023-05-17T02:15:58;11.90;99.90
37356;DHT22;48747;50.250;18.848;2023-05-17T02:17:56;11.90;99.90
37356;DHT22;48747;50.250;18.848;2023-05-17T02:19:59;11.90;99.90
37356;DHT22;48747;50.250;18.848;2023-05-17T02:22:02;11.90;99.90
37356;DHT22;48747;50.250;18.848;2023-05-17T02:24:06;11.90;99.90
37356;DHT22;48747;50.250;18.848;2023-05-17T02:26:09;11.90;99.90
37356;DHT22;48747;50.250;18.848;2023-05-17T02:28:12;11.80;99.90
37356;DHT22;48747;50.250;18.848;2023-05-17T02:30:15;11.80;99.90
37356;DHT22;48747;50.250;18.848;2023-05-17T02:32:18;11.80;99.90
37356;DHT22;48747;50.250;18.848;2023-05-17T02:34:21;11.90;99.90
37356;DHT22;48747;50.250;18.848;2023-05-17T02:36:29;11.80;99.90
37356;DHT22;48747;50.250;18.848;2023-05-17T02:38:39;11.80;99.90
37356;DHT22;48747;50.250;18.848;2023-05-17T02:40:43;11.80;99.90
37356;DHT22;48747;50.250;18.848;2023-05-17T02:42:47;11.80;99.90
37356;DHT22;48747;50.250;18.848;2023-05-17T02:44:52;11.70;99.90
37356;DHT22;48747;50.250;18.848;2023-05-17T02:46:57;11.70;99.90
37356;DHT22;48747;50.250;18.848;2023-05-17T02:49:02;11.60;99.90
37356;DHT22;48747;50.250;18.848;2023-05-17T02:51:06;11.60;99.90
37356;DHT22;48747;50.250;18.848;2023-05-17T02:53:09;11.60;99.90
37356;DHT22;48747;50.250;18.848;2023-05-17T02:55:16;11.60;99.90
37356;DHT22;48747;50.250;18.848;2023-05-17T02:57:19;11.60;99.90
37356;DHT22;48747;50.250;18.848;2023-05-17T02:59:26;11.60;99.90
37356;DHT22;48747;50.250;18.848;2023-05-17T03:01:30;11.60;99.90
37356;DHT22;48747;50.250;18.848;2023-05-17T03:03:33;11.50;99.90
37356;DHT22;48747;50.250;18.848;2023-05-17T03:05:37;11.50;99.90
37356;DHT22;48747;50.250;18.848;2023-05-17T03:07:40;11.50;99.90
37356;DHT22;48747;50.250;18.848;2023-05-17T03:10:01;11.40;99.90
37356;DHT22;48747;50.250;18.848;2023-05-17T03:11:55;11.40;99.90
37356;DHT22;48747;50.250;18.848;2023-05-17T03:13:57;11.40;99.90
37356;DHT22;48747;50.250;18.848;2023-05-17T03:16:02;11.40;99.90
37356;DHT22;48747;50.250;18.848;2023-05-17T03:18:05;11.40;99.90
37356;DHT22;48747;50.250;18.848;2023-05-17T03:20:09;11.40;99.90
37356;DHT22;48747;50.250;18.848;2023-05-17T03:22:12;11.30;99.90
37356;DHT22;48747;50.250;18.848;2023-05-17T03:24:16;11.30;99.90
37356;DHT22;48747;50.250;18.848;2023-05-17T03:26:19;11.30;99.90
37356;DHT22;48747;50.250;18.848;2023-05-17T03:28:25;11.30;99.90
37356;DHT22;48747;50.250;18.848;2023-05-17T03:30:28;11.30;99.90
37356;DHT22;48747;50.250;18.848;2023-05-17T03:32:40;11.20;99.90
37356;DHT22;48747;50.250;18.848;2023-05-17T03:34:41;11.20;99.90
37356;DHT22;48747;50.250;18.848;2023-05-17T03:36:51;11.20;99.90
37356;DHT22;48747;50.250;18.848;2023-05-17T03:38:52;11.10;99.90
37356;DHT22;48747;50.250;18.848;2023-05-17T03:40:57;11.10;99.90
37356;DHT22;48747;50.250;18.848;2023-05-17T03:43:05;11.10;99.90
37356;DHT22;48747;50.250;18.848;2023-05-17T03:45:07;11.10;99.90
37356;DHT22;48747;50.250;18.848;2023-05-17T03:47:10;11.10;99.90
37356;DHT22;48747;50.250;18.848;2023-05-17T03:49:20;11.10;99.90
37356;DHT22;48747;50.250;18.848;2023-05-17T03:51:26;11.00;99.90
37356;DHT22;48747;50.250;18.848;2023-05-17T03:53:29;11.00;99.90
37356;DHT22;48747;50.250;18.848;2023-05-17T03:55:35;11.00;99.90
37356;DHT22;48747;50.250;18.848;2023-05-17T03:57:45;11.00;99.90
37356;DHT22;48747;50.250;18.848;2023-05-17T03:59:46;11.00;99.90
37356;DHT22;48747;50.250;18.848;2023-05-17T04:01:51;11.00;99.90
37356;DHT22;48747;50.250;18.848;2023-05-17T04:03:56;11.00;99.90
37356;DHT22;48747;50.250;18.848;2023-05-17T04:06:03;11.00;99.90
37356;DHT22;48747;50.250;18.848;2023-05-17T04:08:09;10.90;99.90
37356;DHT22;48747;50.250;18.848;2023-05-17T04:10:12;10.90;99.90
37356;DHT22;48747;50.250;18.848;2023-05-17T04:12:16;11.00;99.90
37356;DHT22;48747;50.250;18.848;2023-05-17T04:14:23;11.00;99.90
37356;DHT22;48747;50.250;18.848;2023-05-17T04:16:25;10.90;99.90
37356;DHT22;48747;50.250;18.848;2023-05-17T04:18:28;10.90;99.90
37356;DHT22;48747;50.250;18.848;2023-05-17T04:20:33;10.80;99.90
37356;DHT22;48747;50.250;18.848;2023-05-17T04:22:40;10.80;99.90
37356;DHT22;48747;50.250;18.848;2023-05-17T04:24:43;10.80;99.90
37356;DHT22;48747;50.250;18.848;2023-05-17T04:26:47;10.90;99.90
37356;DHT22;48747;50.250;18.848;2023-05-17T04:28:50;10.80;99.90
37356;DHT22;48747;50.250;18.848;2023-05-17T04:30:54;10.80;99.90
37356;DHT22;48747;50.250;18.848;2023-05-17T04:32:59;10.80;99.90
37356;DHT22;48747;50.250;18.848;2023-05-17T04:35:02;10.80;99.90
37356;DHT22;48747;50.250;18.848;2023-05-17T04:37:07;10.90;99.90
37356;DHT22;48747;50.250;18.848;2023-05-17T04:39:18;10.80;99.90
37356;DHT22;48747;50.250;18.848;2023-05-17T04:41:19;10.90;99.90
37356;DHT22;48747;50.250;18.848;2023-05-17T04:43:23;10.90;99.90
37356;DHT22;48747;50.250;18.848;2023-05-17T04:45:28;10.90;99.90
37356;DHT22;48747;50.250;18.848;2023-05-17T04:47:31;10.90;99.90
37356;DHT22;48747;50.250;18.848;2023-05-17T04:49:39;10.90;99.90
37356;DHT22;48747;50.250;18.848;2023-05-17T04:51:44;10.90;99.90
37356;DHT22;48747;50.250;18.848;2023-05-17T04:53:55;10.90;99.90
37356;DHT22;48747;50.250;18.848;2023-05-17T04:55:54;10.90;99.90
37356;DHT22;48747;50.250;18.848;2023-05-17T04:57:57;10.80;99.90
37356;DHT22;48747;50.250;18.848;2023-05-17T05:00:02;10.80;99.90
37356;DHT22;48747;50.250;18.848;2023-05-17T05:02:10;10.80;99.90
37356;DHT22;48747;50.250;18.848;2023-05-17T05:04:14;10.80;99.90
37356;DHT22;48747;50.250;18.848;2023-05-17T05:06:20;10.80;99.90
37356;DHT22;48747;50.250;18.848;2023-05-17T05:08:25;10.70;99.90
37356;DHT22;48747;50.250;18.848;2023-05-17T05:10:31;10.70;99.90
37356;DHT22;48747;50.250;18.848;2023-05-17T05:12:34;10.70;99.90
37356;DHT22;48747;50.250;18.848;2023-05-17T05:14:37;10.80;99.90
37356;DHT22;48747;50.250;18.848;2023-05-17T05:16:44;10.70;99.90
37356;DHT22;48747;50.250;18.848;2023-05-17T05:18:48;10.70;99.90
37356;DHT22;48747;50.250;18.848;2023-05-17T05:20:56;10.60;99.90
37356;DHT22;48747;50.250;18.848;2023-05-17T05:22:59;10.70;99.90
37356;DHT22;48747;50.250;18.848;2023-05-17T05:25:13;10.60;99.90
37356;DHT22;48747;50.250;18.848;2023-05-17T05:27:16;10.70;99.90
37356;DHT22;48747;50.250;18.848;2023-05-17T05:29:19;10.60;99.90
37356;DHT22;48747;50.250;18.848;2023-05-17T05:31:29;10.60;99.90
37356;DHT22;48747;50.250;18.848;2023-05-17T05:33:30;10.60;99.90
37356;DHT22;48747;50.250;18.848;2023-05-17T05:35:34;10.70;99.90
37356;DHT22;48747;50.250;18.848;2023-05-17T05:37:40;10.70;99.90
37356;DHT22;48747;50.250;18.848;2023-05-17T05:39:44;10.70;99.90
37356;DHT22;48747;50.250;18.848;2023-05-17T05:41:50;10.70;99.90
37356;DHT22;48747;50.250;18.848;2023-05-17T05:43:53;10.60;99.90
37356;DHT22;48747;50.250;18.848;2023-05-17T05:45:56;10.70;99.90
37356;DHT22;48747;50.250;18.848;2023-05-17T05:47:59;10.70;99.90
37356;DHT22;48747;50.250;18.848;2023-05-17T05:50:11;10.70;99.90
37356;DHT22;48747;50.250;18.848;2023-05-17T05:52:11;10.80;99.90
37356;DHT22;48747;50.250;18.848;2023-05-17T05:54:14;10.70;99.90
37356;DHT22;48747;50.250;18.848;2023-05-17T05:56:21;10.70;99.90
37356;DHT22;48747;50.250;18.848;2023-05-17T05:58:22;10.70;99.90
37356;DHT22;48747;50.250;18.848;2023-05-17T06:00:25;10.60;99.90
37356;DHT22;48747;50.250;18.848;2023-05-17T06:02:29;10.70;99.90
37356;DHT22;48747;50.250;18.848;2023-05-17T06:04:32;10.70;99.90
37356;DHT22;48747;50.250;18.848;2023-05-17T06:06:35;10.70;99.90
37356;DHT22;48747;50.250;18.848;2023-05-17T06:08:40;10.60;99.90
37356;DHT22;48747;50.250;18.848;2023-05-17T06:10:45;10.60;99.90
37356;DHT22;48747;50.250;18.848;2023-05-17T06:12:49;10.60;99.90
37356;DHT22;48747;50.250;18.848;2023-05-17T06:14:52;10.60;99.90
37356;DHT22;48747;50.250;18.848;2023-05-17T06:16:56;10.60;99.90
37356;DHT22;48747;50.250;18.848;2023-05-17T06:18:59;10.60;99.90
37356;DHT22;48747;50.250;18.848;2023-05-17T06:21:02;10.60;99.90
37356;DHT22;48747;50.250;18.848;2023-05-17T06:23:05;10.60;99.90
37356;DHT22;48747;50.250;18.848;2023-05-17T06:25:08;10.50;99.90
37356;DHT22;48747;50.250;18.848;2023-05-17T06:27:14;10.40;99.90
37356;DHT22;48747;50.250;18.848;2023-05-17T06:29:18;10.50;99.90
37356;DHT22;48747;50.250;18.848;2023-05-17T06:31:21;10.40;99.90
37356;DHT22;48747;50.250;18.848;2023-05-17T06:33:24;10.40;99.90
37356;DHT22;48747;50.250;18.848;2023-05-17T06:35:27;10.40;99.90
37356;DHT22;48747;50.250;18.848;2023-05-17T06:37:30;10.40;99.90
37356;DHT22;48747;50.250;18.848;2023-05-17T06:39:35;10.30;99.90
37356;DHT22;48747;50.250;18.848;2023-05-17T06:41:40;10.30;99.90
37356;DHT22;48747;50.250;18.848;2023-05-17T06:43:45;10.30;99.90
37356;DHT22;48747;50.250;18.848;2023-05-17T06:45:48;10.20;99.90
37356;DHT22;48747;50.250;18.848;2023-05-17T06:47:52;10.30;99.90
37356;DHT22;48747;50.250;18.848;2023-05-17T06:50:05;10.20;99.90
37356;DHT22;48747;50.250;18.848;2023-05-17T06:52:02;10.30;99.90
37356;DHT22;48747;50.250;18.848;2023-05-17T06:54:06;10.20;99.90
37356;DHT22;48747;50.250;18.848;2023-05-17T06:56:12;10.20;99.90
37356;DHT22;48747;50.250;18.848;2023-05-17T06:58:30;10.20;99.90
37356;DHT22;48747;50.250;18.848;2023-05-17T07:00:43;10.20;99.90
37356;DHT22;48747;50.250;18.848;2023-05-17T07:02:50;10.20;99.90
37356;DHT22;48747;50.250;18.848;2023-05-17T07:04:51;10.20;99.90
37356;DHT22;48747;50.250;18.848;2023-05-17T07:06:57;10.20;99.90
37356;DHT22;48747;50.250;18.848;2023-05-17T07:09:02;10.20;99.90
37356;DHT22;48747;50.250;18.848;2023-05-17T07:11:05;10.10;99.90
37356;DHT22;48747;50.250;18.848;2023-05-17T07:13:09;10.00;99.90
37356;DHT22;48747;50.250;18.848;2023-05-17T07:15:12;9.90;99.90
37356;DHT22;48747;50.250;18.848;2023-05-17T07:17:16;9.90;99.90
37356;DHT22;48747;50.250;18.848;2023-05-17T07:19:21;9.90;99.90
37356;DHT22;48747;50.250;18.848;2023-05-17T07:21:24;9.90;99.90
37356;DHT22;48747;50.250;18.848;2023-05-17T07:23:29;9.90;99.90
37356;DHT22;48747;50.250;18.848;2023-05-17T07:25:32;9.90;99.90
37356;DHT22;48747;50.250;18.848;2023-05-17T07:27:35;9.90;99.90
37356;DHT22;48747;50.250;18.848;2023-05-17T07:29:44;9.90;99.90
37356;DHT22;48747;50.250;18.848;2023-05-17T07:31:45;9.80;99.90
37356;DHT22;48747;50.250;18.848;2023-05-17T07:33:49;9.90;99.90
37356;DHT22;48747;50.250;18.848;2023-05-17T07:35:53;9.90;99.90
37356;DHT22;48747;50.250;18.848;2023-05-17T07:37:56;9.80;99.90
37356;DHT22;48747;50.250;18.848;2023-05-17T07:40:00;9.90;99.90
37356;DHT22;48747;50.250;18.848;2023-05-17T07:42:10;9.80;99.90
37356;DHT22;48747;50.250;18.848;2023-05-17T07:44:13;9.90;99.90
37356;DHT22;48747;50.250;18.848;2023-05-17T07:48:27;9.90;99.90
37356;DHT22;48747;50.250;18.848;2023-05-17T07:50:30;9.90;99.90
37356;DHT22;48747;50.250;18.848;2023-05-17T07:52:35;9.90;99.90
37356;DHT22;48747;50.250;18.848;2023-05-17T07:54:44;9.90;99.90
37356;DHT22;48747;50.250;18.848;2023-05-17T07:56:43;9.90;99.90
37356;DHT22;48747;50.250;18.848;2023-05-17T07:58:46;9.90;99.90
37356;DHT22;48747;50.250;18.848;2023-05-17T08:00:49;9.90;99.90
37356;DHT22;48747;50.250;18.848;2023-05-17T08:02:52;9.90;99.90
37356;DHT22;48747;50.250;18.848;2023-05-17T08:04:56;10.00;99.90
37356;DHT22;48747;50.250;18.848;2023-05-17T08:07:02;9.90;99.90
37356;DHT22;48747;50.250;18.848;2023-05-17T08:09:03;9.80;99.90
37356;DHT22;48747;50.250;18.848;2023-05-17T08:11:06;9.80;99.90
37356;DHT22;48747;50.250;18.848;2023-05-17T08:13:09;9.80;99.90
37356;DHT22;48747;50.250;18.848;2023-05-17T08:15:15;9.80;99.90
37356;DHT22;48747;50.250;18.848;2023-05-17T08:17:17;9.80;99.90
37356;DHT22;48747;50.250;18.848;2023-05-17T08:19:22;9.80;99.90
37356;DHT22;48747;50.250;18.848;2023-05-17T08:21:25;9.90;99.90
37356;DHT22;48747;50.250;18.848;2023-05-17T08:23:28;9.80;99.90
37356;DHT22;48747;50.250;18.848;2023-05-17T08:25:31;9.80;99.90
37356;DHT22;48747;50.250;18.848;2023-05-17T08:27:37;9.90;99.90
37356;DHT22;48747;50.250;18.848;2023-05-17T08:29:40;9.90;99.90
37356;DHT22;48747;50.250;18.848;2023-05-17T08:31:45;10.00;99.90
37356;DHT22;48747;50.250;18.848;2023-05-17T08:33:48;9.90;99.90
37356;DHT22;48747;50.250;18.848;2023-05-17T08:35:52;9.90;99.90
37356;DHT22;48747;50.250;18.848;2023-05-17T08:37:56;9.90;99.90
37356;DHT22;48747;50.250;18.848;2023-05-17T08:39:59;9.90;99.90
37356;DHT22;48747;50.250;18.848;2023-05-17T08:42:06;9.90;99.90
37356;DHT22;48747;50.250;18.848;2023-05-17T08:44:08;10.00;99.90
37356;DHT22;48747;50.250;18.848;2023-05-17T08:46:13;9.90;99.90
37356;DHT22;48747;50.250;18.848;2023-05-17T08:53:06;10.00;99.90
37356;DHT22;48747;50.250;18.848;2023-05-17T08:55:08;9.90;99.90
37356;DHT22;48747;50.250;18.848;2023-05-17T08:57:17;9.90;99.90
37356;DHT22;48747;50.250;18.848;2023-05-17T08:59:22;9.90;99.90
37356;DHT22;48747;50.250;18.848;2023-05-17T09:01:32;9.90;99.90
37356;DHT22;48747;50.250;18.848;2023-05-17T09:03:50;9.90;99.90
37356;DHT22;48747;50.250;18.848;2023-05-17T09:05:57;10.00;99.90
37356;DHT22;48747;50.250;18.848;2023-05-17T09:08:01;9.90;99.90
37356;DHT22;48747;50.250;18.848;2023-05-17T09:45:55;9.90;99.90
37356;DHT22;48747;50.250;18.848;2023-05-17T09:48:12;9.80;99.90
37356;DHT22;48747;50.250;18.848;2023-05-17T09:50:19;9.80;99.90
37356;DHT22;48747;50.250;18.848;2023-05-17T09:52:24;9.70;99.90
37356;DHT22;48747;50.250;18.848;2023-05-17T09:54:36;9.70;99.90
37356;DHT22;48747;50.250;18.848;2023-05-17T09:56:40;9.60;99.90
37356;DHT22;48747;50.250;18.848;2023-05-17T09:58:42;9.60;99.90
37356;DHT22;48747;50.250;18.848;2023-05-17T10:00:48;9.70;99.90
37356;DHT22;48747;50.250;18.848;2023-05-17T10:02:51;9.70;99.90
37356;DHT22;48747;50.250;18.848;2023-05-17T10:05:04;9.70;99.90
37356;DHT22;48747;50.250;18.848;2023-05-17T10:07:02;9.80;99.90
37356;DHT22;48747;50.250;18.848;2023-05-17T10:09:07;9.90;99.90
37356;DHT22;48747;50.250;18.848;2023-05-17T10:11:11;9.80;99.90
37356;DHT22;48747;50.250;18.848;2023-05-17T10:13:16;9.80;99.90
37356;DHT22;48747;50.250;18.848;2023-05-17T10:15:24;9.80;99.90
37356;DHT22;48747;50.250;18.848;2023-05-17T10:17:32;9.80;99.90
37356;DHT22;48747;50.250;18.848;2023-05-17T10:19:36;9.80;99.90
37356;DHT22;48747;50.250;18.848;2023-05-17T10:21:40;9.80;99.90
37356;DHT22;48747;50.250;18.848;2023-05-17T10:23:44;9.90;99.90
37356;DHT22;48747;50.250;18.848;2023-05-17T10:26:00;9.90;99.90
37356;DHT22;48747;50.250;18.848;2023-05-17T10:27:58;9.90;99.90
37356;DHT22;48747;50.250;18.848;2023-05-17T10:30:04;9.90;99.90
37356;DHT22;48747;50.250;18.848;2023-05-17T10:32:12;9.90;99.90
37356;DHT22;48747;50.250;18.848;2023-05-17T10:34:18;10.00;99.90
37356;DHT22;48747;50.250;18.848;2023-05-17T10:36:23;10.00;99.90
37356;DHT22;48747;50.250;18.848;2023-05-17T10:38:28;10.10;99.90
37356;DHT22;48747;50.250;18.848;2023-05-17T10:40:36;10.20;99.90
37356;DHT22;48747;50.250;18.848;2023-05-17T10:42:45;10.10;99.90
37356;DHT22;48747;50.250;18.848;2023-05-17T10:44:48;10.10;99.90
37356;DHT22;48747;50.250;18.848;2023-05-17T10:46:54;10.10;99.90
37356;DHT22;48747;50.250;18.848;2023-05-17T10:49:00;10.10;99.90
37356;DHT22;48747;50.250;18.848;2023-05-17T10:51:06;10.10;99.90
37356;DHT22;48747;50.250;18.848;2023-05-17T10:53:13;10.00;99.90
37356;DHT22;48747;50.250;18.848;2023-05-17T10:55:21;10.00;99.90
37356;DHT22;48747;50.250;18.848;2023-05-17T10:57:34;10.00;99.90
37356;DHT22;48747;50.250;18.848;2023-05-17T10:59:37;10.00;99.90
37356;DHT22;48747;50.250;18.848;2023-05-17T11:04:28;9.90;99.90
37356;DHT22;48747;50.250;18.848;2023-05-17T11:06:37;9.80;99.90
37356;DHT22;48747;50.250;18.848;2023-05-17T11:08:44;9.90;99.90
37356;DHT22;48747;50.250;18.848;2023-05-17T11:11:08;9.90;99.90
37356;DHT22;48747;50.250;18.848;2023-05-17T11:13:24;9.80;99.90
37356;DHT22;48747;50.250;18.848;2023-05-17T11:15:33;9.90;99.90
37356;DHT22;48747;50.250;18.848;2023-05-17T11:20:02;10.00;99.90
37356;DHT22;48747;50.250;18.848;2023-05-17T11:22:09;9.90;99.90
37356;DHT22;48747;50.250;18.848;2023-05-17T11:24:15;9.80;99.90
37356;DHT22;48747;50.250;18.848;2023-05-17T11:26:30;9.80;99.90
37356;DHT22;48747;50.250;18.848;2023-05-17T11:28:33;9.80;99.90
37356;DHT22;48747;50.250;18.848;2023-05-17T11:30:41;9.90;99.90
37356;DHT22;48747;50.250;18.848;2023-05-17T11:32:52;9.80;99.90
37356;DHT22;48747;50.250;18.848;2023-05-17T11:34:53;9.80;99.90
37356;DHT22;48747;50.250;18.848;2023-05-17T11:36:57;9.80;99.90
37356;DHT22;48747;50.250;18.848;2023-05-17T11:41:20;9.60;99.90
37356;DHT22;48747;50.250;18.848;2023-05-17T11:43:26;9.60;99.90
37356;DHT22;48747;50.250;18.848;2023-05-17T11:45:42;9.70;99.90
37356;DHT22;48747;50.250;18.848;2023-05-17T11:47:47;9.70;99.90
37356;DHT22;48747;50.250;18.848;2023-05-17T11:49:54;9.80;99.90
37356;DHT22;48747;50.250;18.848;2023-05-17T11:51:59;9.80;99.90
37356;DHT22;48747;50.250;18.848;2023-05-17T11:56:13;9.80;99.90
37356;DHT22;48747;50.250;18.848;2023-05-17T11:58:23;9.80;99.90
37356;DHT22;48747;50.250;18.848;2023-05-17T12:00:26;9.80;99.90
37356;DHT22;48747;50.250;18.848;2023-05-17T12:02:31;9.80;99.90
37356;DHT22;48747;50.250;18.848;2023-05-17T12:04:35;9.70;99.90
37356;DHT22;48747;50.250;18.848;2023-05-17T12:06:43;9.70;99.90
37356;DHT22;48747;50.250;18.848;2023-05-17T12:08:49;9.80;99.90
37356;DHT22;48747;50.250;18.848;2023-05-17T12:10:53;9.70;99.90
37356;DHT22;48747;50.250;18.848;2023-05-17T12:13:02;9.70;99.90
37356;DHT22;48747;50.250;18.848;2023-05-17T12:15:10;9.70;99.90
37356;DHT22;48747;50.250;18.848;2023-05-17T12:17:27;9.70;99.90
37356;DHT22;48747;50.250;18.848;2023-05-17T12:19:21;9.70;99.90
37356;DHT22;48747;50.250;18.848;2023-05-17T12:21:25;9.70;99.90
37356;DHT22;48747;50.250;18.848;2023-05-17T12:23:44;9.70;99.90
37356;DHT22;48747;50.250;18.848;2023-05-17T12:25:40;9.70;99.90
37356;DHT22;48747;50.250;18.848;2023-05-17T12:27:45;9.60;99.90
37356;DHT22;48747;50.250;18.848;2023-05-17T12:29:49;9.60;99.90
37356;DHT22;48747;50.250;18.848;2023-05-17T12:31:55;9.60;99.90
37356;DHT22;48747;50.250;18.848;2023-05-17T12:33:59;9.50;99.90
37356;DHT22;48747;50.250;18.848;2023-05-17T12:36:07;9.40;99.90
37356;DHT22;48747;50.250;18.848;2023-05-17T12:38:16;9.50;99.90
37356;DHT22;48747;50.250;18.848;2023-05-17T12:40:19;9.40;99.90
37356;DHT22;48747;50.250;18.848;2023-05-17T12:42:25;9.40;99.90
37356;DHT22;48747;50.250;18.848;2023-05-17T12:44:27;9.40;99.90
37356;DHT22;48747;50.250;18.848;2023-05-17T12:46:32;9.50;99.90
37356;DHT22;48747;50.250;18.848;2023-05-17T12:48:41;9.60;99.90
37356;DHT22;48747;50.250;18.848;2023-05-17T12:50:46;9.60;99.90
37356;DHT22;48747;50.250;18.848;2023-05-17T12:53:06;9.60;99.90
37356;DHT22;48747;50.250;18.848;2023-05-17T12:55:02;9.70;99.90
37356;DHT22;48747;50.250;18.848;2023-05-17T12:57:12;9.70;99.90
37356;DHT22;48747;50.250;18.848;2023-05-17T12:59:32;9.80;99.90
37356;DHT22;48747;50.250;18.848;2023-05-17T13:01:23;9.80;99.90
37356;DHT22;48747;50.250;18.848;2023-05-17T13:03:35;9.80;99.90
37356;DHT22;48747;50.250;18.848;2023-05-17T13:05:37;9.80;99.90
37356;DHT22;48747;50.250;18.848;2023-05-17T13:07:42;9.80;99.90
37356;DHT22;48747;50.250;18.848;2023-05-17T13:09:46;9.90;99.90
37356;DHT22;48747;50.250;18.848;2023-05-17T13:13:57;9.90;99.90
37356;DHT22;48747;50.250;18.848;2023-05-17T13:16:07;10.00;99.90
37356;DHT22;48747;50.250;18.848;2023-05-17T13:18:14;10.00;99.90
37356;DHT22;48747;50.250;18.848;2023-05-17T13:20:17;10.00;99.90
37356;DHT22;48747;50.250;18.848;2023-05-17T13:22:20;10.00;99.90
37356;DHT22;48747;50.250;18.848;2023-05-17T13:24:25;10.00;99.90
37356;DHT22;48747;50.250;18.848;2023-05-17T13:26:32;10.00;99.90
37356;DHT22;48747;50.250;18.848;2023-05-17T13:28:38;10.00;99.90
37356;DHT22;48747;50.250;18.848;2023-05-17T13:30:44;10.00;99.90
37356;DHT22;48747;50.250;18.848;2023-05-17T13:32:48;10.00;99.90
37356;DHT22;48747;50.250;18.848;2023-05-17T13:35:00;9.90;99.90
37356;DHT22;48747;50.250;18.848;2023-05-17T13:36:57;9.90;99.90
37356;DHT22;48747;50.250;18.848;2023-05-17T13:39:00;9.90;99.90
37356;DHT22;48747;50.250;18.848;2023-05-17T13:41:05;9.90;99.90
37356;DHT22;48747;50.250;18.848;2023-05-17T13:43:11;9.90;99.90
37356;DHT22;48747;50.250;18.848;2023-05-17T13:45:14;9.80;99.90
37356;DHT22;48747;50.250;18.848;2023-05-17T13:47:19;9.80;99.90
37356;DHT22;48747;50.250;18.848;2023-05-17T13:49:25;9.70;99.90
37356;DHT22;48747;50.250;18.848;2023-05-17T13:51:34;9.80;99.90
37356;DHT22;48747;50.250;18.848;2023-05-17T13:53:33;9.80;99.90
37356;DHT22;48747;50.250;18.848;2023-05-17T13:55:38;9.70;99.90
37356;DHT22;48747;50.250;18.848;2023-05-17T13:57:43;9.70;99.90
37356;DHT22;48747;50.250;18.848;2023-05-17T13:59:48;9.70;99.90
37356;DHT22;48747;50.250;18.848;2023-05-17T14:01:51;9.70;99.90
37356;DHT22;48747;50.250;18.848;2023-05-17T14:04:00;9.70;99.90
37356;DHT22;48747;50.250;18.848;2023-05-17T14:06:02;9.60;99.90
37356;DHT22;48747;50.250;18.848;2023-05-17T14:08:07;9.60;99.90
37356;DHT22;48747;50.250;18.848;2023-05-17T14:10:14;9.60;99.90
37356;DHT22;48747;50.250;18.848;2023-05-17T14:12:17;9.60;99.90
37356;DHT22;48747;50.250;18.848;2023-05-17T14:14:20;9.60;99.90
37356;DHT22;48747;50.250;18.848;2023-05-17T14:16:25;9.60;99.90
37356;DHT22;48747;50.250;18.848;2023-05-17T14:18:28;9.60;99.90